Time;durP1;ratioP1;P1;durP2;ratioP2;P2;SDS_P1;SDS_P2;PMS_P1;PMS_P2;Temp;Humidity;BMP_temperature;BMP_pressure;BME280_temperature;BME280_humidity;BME280_pressure;Samples;Min_cycle;Max_cycle;Signal;HPM_P1;HPM_P2
2021/06/05 00:00:27;;;;;;;318.63;112.57;;;17.40;99.90;;;;;;5071358;28;20235;-78
2021/06/05 00:02:54;;;;;;;303.17;114.80;;;17.30;99.90;;;;;;5068658;28;20210;-76
2021/06/05 00:05:23;;;;;;;328.57;118.10;;;17.30;99.90;;;;;;5070627;28;20638;-79
2021/06/05 00:07:50;;;;;;;347.53;121.00;;;17.30;99.90;;;;;;5069675;28;20227;-80
2021/06/05 00:10:24;;;;;;;324.80;119.73;;;17.40;99.90;;;;;;5068998;28;20278;-78
2021/06/05 00:12:50;;;;;;;351.90;121.47;;;17.40;99.90;;;;;;5070768;28;20278;-77
2021/06/05 00:15:23;;;;;;;301.73;118.33;;;17.40;99.90;;;;;;5062035;28;20654;-76
2021/06/05 00:17:50;;;;;;;295.77;119.37;;;17.50;99.90;;;;;;5071449;28;20249;-77
2021/06/05 00:20:16;;;;;;;289.87;117.27;;;17.50;99.90;;;;;;5067390;28;20291;-76
2021/06/05 00:22:44;;;;;;;303.13;117.47;;;17.50;99.90;;;;;;5055678;28;20642;-76
2021/06/05 00:25:14;;;;;;;300.83;118.90;;;17.50;99.90;;;;;;5054733;28;20231;-76
2021/06/05 00:27:41;;;;;;;295.03;115.13;;;17.40;99.90;;;;;;5054326;28;20721;-77
2021/06/05 00:30:09;;;;;;;276.13;114.60;;;17.40;99.90;;;;;;5054324;28;20287;-76
2021/06/05 00:32:35;;;;;;;263.43;112.33;;;17.40;99.90;;;;;;5054367;28;20296;-77
2021/06/05 00:35:02;;;;;;;294.03;112.20;;;17.30;99.90;;;;;;5054642;28;20200;-78
2021/06/05 00:37:28;;;;;;;259.27;112.60;;;17.30;99.90;;;;;;5054546;28;20196;-75
2021/06/05 00:39:56;;;;;;;256.87;109.47;;;17.20;99.90;;;;;;5054403;28;20196;-77
2021/06/05 00:42:22;;;;;;;258.73;110.63;;;17.20;99.90;;;;;;5054382;28;20199;-76
2021/06/05 00:44:48;;;;;;;242.77;108.37;;;17.20;99.90;;;;;;5053889;28;20223;-79
2021/06/05 00:47:15;;;;;;;265.00;110.20;;;17.30;99.90;;;;;;5054172;28;20196;-76
2021/06/05 00:49:41;;;;;;;251.00;105.87;;;17.40;99.90;;;;;;5053793;28;20590;-76
2021/06/05 00:52:07;;;;;;;262.83;107.13;;;17.40;99.90;;;;;;5054214;28;20562;-76
2021/06/05 00:54:35;;;;;;;255.23;106.93;;;17.50;99.90;;;;;;5053705;28;20200;-79
2021/06/05 00:57:06;;;;;;;263.50;109.50;;;17.50;99.90;;;;;;5053947;28;20216;-80
2021/06/05 00:59:33;;;;;;;236.30;105.17;;;17.50;99.90;;;;;;5054064;28;20549;-76
2021/06/05 01:01:59;;;;;;;246.07;105.70;;;17.60;99.90;;;;;;5053614;28;20645;-76
2021/06/05 01:04:26;;;;;;;226.80;102.77;;;17.60;99.90;;;;;;5053345;28;20196;-77
2021/06/05 01:06:56;;;;;;;234.20;102.07;;;17.50;99.90;;;;;;5054081;28;20279;-78
2021/06/05 01:09:28;;;;;;;227.53;101.33;;;17.50;99.90;;;;;;5053701;28;20287;-77
2021/06/05 01:11:59;;;;;;;231.90;102.30;;;17.60;99.90;;;;;;5053813;28;20210;-79
2021/06/05 01:14:33;;;;;;;228.20;102.20;;;17.60;99.90;;;;;;5053923;28;20314;-79
2021/06/05 01:17:04;;;;;;;241.03;102.87;;;17.60;99.90;;;;;;5053488;28;20204;-76
2021/06/05 01:19:42;;;;;;;239.33;101.27;;;17.70;99.90;;;;;;5052684;28;20287;-76
2021/06/05 01:22:18;;;;;;;233.63;102.17;;;17.70;99.90;;;;;;5053500;28;20287;-76
2021/06/05 01:24:58;;;;;;;237.43;101.47;;;17.60;99.90;;;;;;5040642;28;20220;-79
2021/06/05 01:27:29;;;;;;;219.60;98.10;;;17.60;99.90;;;;;;5053183;28;20208;-76
2021/06/05 01:30:00;;;;;;;227.83;100.10;;;17.60;99.90;;;;;;5053358;28;20200;-76
2021/06/05 01:32:28;;;;;;;231.97;98.10;;;17.60;99.90;;;;;;5053478;28;20279;-76
2021/06/05 01:34:57;;;;;;;216.47;97.20;;;17.60;99.90;;;;;;5053038;28;20279;-76
2021/06/05 01:37:26;;;;;;;207.77;95.30;;;17.60;99.90;;;;;;5053249;28;20230;-79
2021/06/05 01:39:54;;;;;;;216.77;95.37;;;17.60;99.90;;;;;;5053191;28;20208;-77
2021/06/05 01:42:23;;;;;;;212.70;94.47;;;17.70;99.90;;;;;;5053043;28;20479;-77
2021/06/05 01:44:54;;;;;;;209.10;94.37;;;17.80;99.90;;;;;;5052796;28;20266;-77
2021/06/05 01:47:22;;;;;;;209.77;94.03;;;17.90;99.90;;;;;;5053374;28;20363;-78
2021/06/05 01:49:49;;;;;;;207.13;93.27;;;17.90;99.90;;;;;;5052881;28;20220;-76
2021/06/05 01:52:21;;;;;;;210.83;90.43;;;17.90;99.90;;;;;;5053186;28;20250;-77
2021/06/05 01:54:52;;;;;;;203.00;91.87;;;17.90;99.90;;;;;;5052127;28;20593;-79
2021/06/05 01:57:22;;;;;;;202.57;91.93;;;17.90;99.90;;;;;;5052622;28;20223;-79
2021/06/05 01:59:49;;;;;;;214.80;91.30;;;17.90;99.90;;;;;;5052908;28;20542;-76
2021/06/05 02:02:16;;;;;;;256.70;90.13;;;17.90;99.90;;;;;;5053175;28;20196;-79
2021/06/05 02:04:45;;;;;;;373.73;95.77;;;17.80;99.90;;;;;;5052569;28;20246;-77
2021/06/05 02:07:12;;;;;;;302.77;91.27;;;17.80;99.90;;;;;;5052934;28;20647;-78
2021/06/05 02:09:38;;;;;;;329.43;93.77;;;17.70;99.90;;;;;;5053205;28;20300;-76
2021/06/05 02:12:13;;;;;;;341.07;94.60;;;17.60;99.90;;;;;;5052616;28;20193;-76
2021/06/05 02:14:45;;;;;;;365.27;93.47;;;17.50;99.90;;;;;;5052852;28;20322;-77
2021/06/05 02:17:12;;;;;;;364.77;94.17;;;17.30;99.90;;;;;;5052420;28;20196;-76
2021/06/05 02:19:43;;;;;;;383.50;95.73;;;17.20;99.90;;;;;;5053015;28;20549;-76
2021/06/05 02:22:14;;;;;;;299.73;93.80;;;17.10;99.90;;;;;;5052541;28;20204;-76
2021/06/05 02:24:45;;;;;;;356.43;95.57;;;17.10;99.90;;;;;;5052746;28;20303;-76
2021/06/05 02:27:14;;;;;;;315.10;90.17;;;17.00;99.90;;;;;;5052462;28;20620;-76
2021/06/05 02:29:41;;;;;;;339.87;96.17;;;17.00;99.90;;;;;;5052392;28;20250;-76
2021/06/05 02:32:10;;;;;;;343.60;96.50;;;16.90;99.90;;;;;;5052769;28;20202;-76
2021/06/05 02:34:37;;;;;;;374.27;94.20;;;16.90;99.90;;;;;;5052311;28;20685;-76
2021/06/05 02:37:08;;;;;;;275.80;90.50;;;16.90;99.90;;;;;;5052741;28;20760;-77
2021/06/05 02:39:35;;;;;;;300.20;91.53;;;16.90;99.90;;;;;;5049568;28;20287;-77
2021/06/05 02:42:02;;;;;;;303.37;89.30;;;16.80;99.90;;;;;;5046495;28;20188;-77
2021/06/05 02:44:30;;;;;;;263.77;89.70;;;16.70;99.90;;;;;;5038220;28;20287;-76
2021/06/05 02:46:58;;;;;;;271.27;87.97;;;16.70;99.90;;;;;;5052462;28;20291;-76
2021/06/05 02:49:29;;;;;;;238.13;89.53;;;16.70;99.90;;;;;;5052170;28;20283;-76
2021/06/05 02:51:59;;;;;;;252.53;89.63;;;16.60;99.90;;;;;;5052123;28;20713;-78
2021/06/05 02:54:27;;;;;;;250.13;90.13;;;16.60;99.90;;;;;;5052232;28;20204;-77
2021/06/05 02:56:56;;;;;;;258.20;90.83;;;16.50;99.90;;;;;;5051735;28;20228;-76
2021/06/05 02:59:23;;;;;;;301.40;94.43;;;16.50;99.90;;;;;;5051915;28;20192;-76
2021/06/05 03:01:50;;;;;;;318.27;94.90;;;16.50;99.90;;;;;;5052012;28;20280;-79
2021/06/05 03:04:17;;;;;;;321.30;93.13;;;16.50;99.90;;;;;;5051945;28;20202;-78
2021/06/05 03:06:43;;;;;;;282.07;85.17;;;16.50;99.90;;;;;;5052100;28;20617;-77
2021/06/05 03:09:16;;;;;;;331.30;89.40;;;16.40;99.90;;;;;;5051964;28;20352;-78
2021/06/05 03:11:44;;;;;;;277.53;83.37;;;16.50;99.90;;;;;;5052150;28;20200;-77
2021/06/05 03:14:11;;;;;;;253.00;82.53;;;16.40;99.90;;;;;;5052114;28;20398;-76
2021/06/05 03:16:37;;;;;;;259.47;81.90;;;16.40;99.90;;;;;;5051909;28;20294;-77
2021/06/05 03:19:05;;;;;;;269.17;81.00;;;16.30;99.90;;;;;;5052426;28;20230;-79
2021/06/05 03:21:32;;;;;;;267.33;80.23;;;16.30;99.90;;;;;;5052182;28;20204;-79
2021/06/05 03:23:59;;;;;;;269.83;79.23;;;16.30;99.90;;;;;;5051961;28;20286;-76
2021/06/05 03:26:25;;;;;;;257.60;82.20;;;16.20;99.90;;;;;;5052030;28;20212;-77
2021/06/05 03:28:53;;;;;;;263.97;81.77;;;16.20;99.90;;;;;;5052227;28;20224;-76
2021/06/05 03:31:20;;;;;;;265.43;80.93;;;16.00;99.90;;;;;;5051768;28;20547;-76
2021/06/05 03:33:48;;;;;;;248.23;77.63;;;16.00;99.90;;;;;;5051974;28;20208;-79
2021/06/05 03:36:15;;;;;;;230.37;76.33;;;15.90;99.90;;;;;;5051678;28;20673;-77
2021/06/05 03:38:44;;;;;;;242.17;77.53;;;16.10;99.90;;;;;;5051958;28;20298;-78
2021/06/05 03:41:11;;;;;;;235.27;77.20;;;16.10;99.90;;;;;;5051799;28;20204;-78
2021/06/05 03:43:38;;;;;;;232.83;77.37;;;16.20;99.90;;;;;;5054356;28;20200;-80
2021/06/05 03:46:08;;;;;;;269.53;76.43;;;16.20;99.90;;;;;;5055061;28;20251;-79
2021/06/05 03:48:34;;;;;;;227.00;71.90;;;16.20;99.90;;;;;;5055349;28;20188;-77
2021/06/05 03:51:01;;;;;;;267.73;74.67;;;16.20;99.90;;;;;;5055668;28;20211;-77
2021/06/05 03:53:28;;;;;;;243.03;72.97;;;16.30;99.90;;;;;;5055044;28;20196;-79
2021/06/05 03:55:56;;;;;;;236.50;71.30;;;16.20;99.90;;;;;;5055197;28;20565;-77
2021/06/05 03:58:28;;;;;;;243.17;73.30;;;16.20;99.90;;;;;;5055784;28;20208;-77
2021/06/05 04:00:56;;;;;;;251.27;78.10;;;16.30;99.90;;;;;;5047642;28;20196;-78
2021/06/05 04:03:24;;;;;;;211.50;72.00;;;16.20;99.90;;;;;;5055800;28;20207;-77
2021/06/05 04:05:50;;;;;;;200.53;71.77;;;16.10;99.90;;;;;;5055146;28;20255;-77
2021/06/05 04:08:17;;;;;;;185.40;71.27;;;16.10;99.90;;;;;;5055768;28;20283;-79
2021/06/05 04:10:43;;;;;;;172.90;67.33;;;16.00;99.90;;;;;;5055245;28;20188;-76
2021/06/05 04:13:09;;;;;;;181.90;68.73;;;16.00;99.90;;;;;;5055116;28;20528;-78
2021/06/05 04:15:36;;;;;;;165.73;67.87;;;16.00;99.90;;;;;;5055161;28;20230;-77
2021/06/05 04:18:07;;;;;;;142.43;62.90;;;16.00;99.90;;;;;;5054799;28;20198;-77
2021/06/05 04:20:37;;;;;;;124.17;59.13;;;16.10;99.90;;;;;;5055001;28;20275;-77
2021/06/05 04:23:04;;;;;;;109.57;54.43;;;16.10;99.90;;;;;;5054967;28;20279;-79
2021/06/05 04:25:30;;;;;;;106.33;52.87;;;16.10;99.90;;;;;;5054665;28;20279;-77
2021/06/05 04:27:57;;;;;;;92.27;50.53;;;16.00;99.90;;;;;;5054589;28;20290;-77
2021/06/05 04:30:28;;;;;;;97.90;52.30;;;15.90;99.90;;;;;;5055083;28;20203;-79
2021/06/05 04:32:55;;;;;;;87.60;51.63;;;15.80;99.90;;;;;;5054788;28;20196;-78
2021/06/05 04:35:22;;;;;;;94.23;49.70;;;15.80;99.90;;;;;;5054458;28;20228;-77
2021/06/05 04:37:50;;;;;;;84.70;51.00;;;15.80;99.90;;;;;;5054524;28;20279;-80
2021/06/05 04:40:17;;;;;;;95.73;51.63;;;15.70;99.90;;;;;;5054679;28;20224;-77
2021/06/05 04:42:44;;;;;;;85.43;50.83;;;15.80;99.90;;;;;;5054256;28;20238;-77
2021/06/05 04:45:12;;;;;;;99.67;51.97;;;15.80;99.90;;;;;;5054533;28;20273;-77
2021/06/05 04:47:38;;;;;;;102.90;51.87;;;15.90;99.90;;;;;;5054304;28;20690;-77
2021/06/05 04:50:09;;;;;;;88.97;49.47;;;16.00;99.90;;;;;;5054641;28;20602;-79
2021/06/05 04:52:36;;;;;;;87.30;51.03;;;15.90;99.90;;;;;;5052861;28;20283;-80
2021/06/05 04:55:05;;;;;;;84.90;49.87;;;15.90;99.90;;;;;;5052906;28;20624;-77
2021/06/05 04:57:31;;;;;;;84.63;49.23;;;15.90;99.90;;;;;;5054482;28;20204;-78
2021/06/05 04:59:58;;;;;;;83.03;49.17;;;15.90;99.90;;;;;;5054176;28;20193;-77
2021/06/05 05:02:24;;;;;;;79.33;49.03;;;16.00;99.90;;;;;;5054130;28;20295;-78
2021/06/05 05:04:51;;;;;;;89.53;50.17;;;16.00;99.90;;;;;;5054184;28;20207;-79
2021/06/05 05:07:17;;;;;;;91.80;49.87;;;16.00;99.90;;;;;;5053704;28;20287;-77
2021/06/05 05:09:44;;;;;;;84.17;49.57;;;16.00;99.90;;;;;;5053551;28;20351;-78
2021/06/05 05:12:13;;;;;;;84.20;48.67;;;16.00;99.90;;;;;;5053533;28;20210;-79
2021/06/05 05:14:40;;;;;;;89.93;49.37;;;16.00;99.90;;;;;;5053753;28;20223;-80
2021/06/05 05:17:07;;;;;;;91.37;52.30;;;16.00;99.90;;;;;;5053874;28;20522;-77
2021/06/05 05:19:33;;;;;;;95.23;52.20;;;16.00;99.90;;;;;;5053559;28;20283;-78
2021/06/05 05:22:00;;;;;;;84.27;51.43;;;16.00;99.90;;;;;;5053993;28;20231;-77
2021/06/05 05:24:26;;;;;;;87.43;52.97;;;16.10;99.90;;;;;;5053177;28;20275;-79
2021/06/05 05:26:53;;;;;;;88.77;50.63;;;16.10;99.90;;;;;;5053364;28;20374;-80
2021/06/05 05:29:21;;;;;;;82.37;50.50;;;16.10;99.90;;;;;;5052918;28;20287;-77
2021/06/05 05:31:47;;;;;;;87.10;49.87;;;16.20;99.90;;;;;;5053679;28;20220;-78
2021/06/05 05:34:14;;;;;;;83.77;49.50;;;16.20;99.90;;;;;;5053158;28;20658;-77
2021/06/05 05:36:41;;;;;;;86.13;51.00;;;16.20;99.90;;;;;;5053708;28;20587;-77
2021/06/05 05:39:10;;;;;;;77.70;49.43;;;16.10;99.90;;;;;;5053312;28;20287;-78
2021/06/05 05:41:37;;;;;;;80.97;49.27;;;16.20;99.90;;;;;;5053238;28;20239;-77
2021/06/05 05:44:04;;;;;;;81.20;49.83;;;16.10;99.90;;;;;;5053363;28;20721;-78
2021/06/05 05:46:33;;;;;;;76.17;48.20;;;16.10;99.90;;;;;;5053303;28;20239;-78
2021/06/05 05:49:00;;;;;;;78.90;48.57;;;16.10;99.90;;;;;;5053405;28;20267;-77
2021/06/05 05:51:27;;;;;;;83.90;48.50;;;16.20;99.90;;;;;;5053224;28;20597;-80
2021/06/05 05:53:54;;;;;;;76.17;48.00;;;16.30;99.90;;;;;;5052931;28;20646;-77
2021/06/05 05:56:24;;;;;;;77.37;47.53;;;16.40;99.90;;;;;;5052832;28;20272;-81
2021/06/05 05:58:53;;;;;;;78.10;47.07;;;16.50;99.90;;;;;;5052727;28;20192;-79
2021/06/05 06:01:21;;;;;;;72.57;46.50;;;16.50;99.90;;;;;;5052875;28;20601;-77
2021/06/05 06:03:49;;;;;;;74.23;45.13;;;16.50;99.90;;;;;;5052504;28;20200;-77
2021/06/05 06:06:16;;;;;;;70.40;45.37;;;16.60;99.90;;;;;;5052434;28;20302;-77
2021/06/05 06:08:43;;;;;;;69.80;42.90;;;16.50;99.90;;;;;;5051098;28;20638;-76
2021/06/05 06:11:10;;;;;;;72.63;44.17;;;16.50;99.90;;;;;;5036698;28;20196;-79
2021/06/05 06:13:37;;;;;;;66.77;41.73;;;16.40;99.90;;;;;;5041214;28;20500;-77
2021/06/05 06:16:04;;;;;;;67.60;41.07;;;16.30;99.90;;;;;;5041302;28;20197;-77
2021/06/05 06:18:31;;;;;;;75.20;41.63;;;16.30;99.90;;;;;;5038017;28;20200;-77
2021/06/05 06:20:59;;;;;;;73.40;41.23;;;16.40;99.90;;;;;;5034964;28;20279;-77
2021/06/05 06:23:28;;;;;;;79.60;42.90;;;16.50;99.90;;;;;;5038626;28;20243;-77
2021/06/05 06:25:56;;;;;;;81.70;44.33;;;16.50;99.90;;;;;;5036060;28;20307;-78
2021/06/05 06:28:26;;;;;;;82.10;45.60;;;16.50;99.90;;;;;;5032337;28;20200;-77
2021/06/05 06:30:54;;;;;;;89.73;46.77;;;16.50;99.90;;;;;;5035811;28;20201;-76
2021/06/05 06:33:21;;;;;;;87.23;47.27;;;16.40;99.90;;;;;;5042165;28;20201;-79
2021/06/05 06:35:47;;;;;;;93.10;47.60;;;16.30;99.90;;;;;;5033802;28;20604;-80
2021/06/05 06:38:17;;;;;;;89.17;46.80;;;16.30;99.90;;;;;;5043263;28;20553;-77
2021/06/05 06:40:44;;;;;;;101.17;49.03;;;16.10;99.90;;;;;;5050398;28;20210;-77
2021/06/05 06:43:15;;;;;;;99.97;48.40;;;16.10;99.90;;;;;;5050614;28;20287;-77
2021/06/05 06:45:41;;;;;;;107.47;50.23;;;15.90;99.90;;;;;;5051696;28;20208;-80
2021/06/05 06:48:08;;;;;;;103.60;49.50;;;15.90;99.90;;;;;;5051487;28;20203;-80
2021/06/05 06:50:35;;;;;;;101.83;49.97;;;15.90;99.90;;;;;;5052002;28;20654;-78
2021/06/05 06:53:01;;;;;;;107.30;50.00;;;15.90;99.90;;;;;;5052054;28;20606;-77
2021/06/05 06:55:29;;;;;;;102.97;49.20;;;15.90;99.90;;;;;;5051860;28;20203;-77
2021/06/05 06:57:56;;;;;;;105.80;50.23;;;15.90;99.90;;;;;;5051736;28;20280;-78
2021/06/05 07:00:25;;;;;;;103.13;51.20;;;16.00;99.90;;;;;;5052162;28;20227;-78
2021/06/05 07:02:52;;;;;;;99.27;48.27;;;16.00;99.90;;;;;;5050739;28;20296;-77
2021/06/05 07:05:20;;;;;;;99.70;50.17;;;16.10;99.90;;;;;;5051085;28;20275;-77
2021/06/05 07:07:46;;;;;;;98.17;47.63;;;16.30;99.90;;;;;;5046660;28;20208;-77
2021/06/05 07:10:15;;;;;;;104.00;49.20;;;16.30;99.90;;;;;;5043559;28;20251;-76
2021/06/05 07:12:43;;;;;;;93.70;47.03;;;16.30;99.90;;;;;;5053476;28;20275;-77
2021/06/05 07:15:11;;;;;;;88.03;45.63;;;16.30;99.90;;;;;;5053742;28;20202;-77
2021/06/05 07:17:37;;;;;;;87.70;46.07;;;16.30;99.90;;;;;;5044512;28;20196;-78
2021/06/05 07:20:04;;;;;;;97.77;46.07;;;16.30;99.90;;;;;;5045230;28;20265;-77
2021/06/05 07:22:31;;;;;;;84.70;44.93;;;16.30;99.90;;;;;;5045228;28;20279;-77
2021/06/05 07:24:57;;;;;;;86.67;45.27;;;16.30;99.90;;;;;;5039315;28;20288;-77
2021/06/05 07:27:23;;;;;;;77.43;44.63;;;16.30;99.90;;;;;;5041405;28;20208;-77
2021/06/05 07:29:51;;;;;;;80.20;43.90;;;16.30;99.90;;;;;;5035975;28;20279;-78
2021/06/05 07:32:17;;;;;;;83.30;44.50;;;16.40;99.90;;;;;;5041858;28;20284;-78
2021/06/05 07:34:44;;;;;;;79.60;42.97;;;16.50;99.90;;;;;;5056353;28;20277;-78
2021/06/05 07:37:12;;;;;;;72.40;42.70;;;16.50;99.90;;;;;;5041421;28;20201;-79
2021/06/05 07:39:39;;;;;;;72.07;40.73;;;16.50;99.90;;;;;;5043114;28;20219;-78
2021/06/05 07:42:07;;;;;;;72.47;40.77;;;16.50;99.90;;;;;;5037332;28;20232;-77
2021/06/05 07:44:34;;;;;;;67.10;37.07;;;16.40;99.90;;;;;;5042655;28;20203;-81
2021/06/05 07:47:05;;;;;;;56.30;34.53;;;16.40;99.90;;;;;;5052373;28;20303;-78
2021/06/05 07:49:34;;;;;;;53.20;32.57;;;16.40;99.90;;;;;;5049925;28;20532;-79
2021/06/05 07:52:02;;;;;;;52.10;30.47;;;16.10;99.90;;;;;;5035250;28;20604;-78
2021/06/05 07:54:28;;;;;;;48.47;30.47;;;16.00;99.90;;;;;;5035344;28;20620;-77
2021/06/05 07:56:55;;;;;;;44.70;29.20;;;15.90;99.90;;;;;;5055205;28;20283;-78
2021/06/05 07:59:23;;;;;;;38.67;27.97;;;16.10;99.90;;;;;;5041298;28;20196;-77
2021/06/05 08:01:50;;;;;;;48.00;27.97;;;16.00;99.90;;;;;;5040598;28;20230;-77
2021/06/05 08:04:19;;;;;;;36.17;25.97;;;16.10;99.90;;;;;;5050489;28;20287;-77
2021/06/05 08:06:46;;;;;;;35.17;24.87;;;16.20;99.90;;;;;;5059623;28;20307;-77
2021/06/05 08:09:13;;;;;;;35.77;24.57;;;16.30;99.90;;;;;;5056355;28;20665;-77
2021/06/05 08:11:40;;;;;;;35.07;23.10;;;16.40;99.90;;;;;;5063175;28;20222;-78
2021/06/05 08:14:07;;;;;;;31.63;23.30;;;16.80;99.90;;;;;;5048527;28;20254;-78
2021/06/05 08:16:37;;;;;;;30.53;22.50;;;17.00;99.90;;;;;;5048846;28;20291;-75
2021/06/05 08:19:05;;;;;;;34.63;26.37;;;17.10;99.90;;;;;;5065904;28;20238;-76
2021/06/05 08:21:33;;;;;;;34.63;25.37;;;17.30;99.90;;;;;;5048196;28;20664;-76
2021/06/05 08:23:59;;;;;;;34.50;25.37;;;17.40;99.90;;;;;;5062778;28;20219;-76
2021/06/05 08:26:26;;;;;;;30.77;23.40;;;17.40;99.90;;;;;;5046046;28;20341;-75
2021/06/05 08:28:55;;;;;;;31.73;22.73;;;17.30;99.90;;;;;;5047013;28;20276;-77
2021/06/05 08:31:22;;;;;;;31.07;22.07;;;17.10;99.90;;;;;;5044414;28;20626;-77
2021/06/05 08:33:48;;;;;;;28.87;21.63;;;17.30;99.90;;;;;;5046894;28;20189;-78
2021/06/05 08:36:16;;;;;;;27.90;22.43;;;17.10;99.90;;;;;;5053081;28;20204;-77
2021/06/05 08:38:45;;;;;;;30.73;22.30;;;16.90;99.90;;;;;;5041034;28;20787;-75
2021/06/05 08:41:19;;;;;;;32.90;24.43;;;17.10;99.90;;;;;;5053635;28;20303;-76
2021/06/05 08:43:50;;;;;;;35.13;26.70;;;17.10;99.90;;;;;;5052646;28;20226;-76
2021/06/05 08:46:22;;;;;;;41.37;28.87;;;17.00;99.90;;;;;;5052499;28;20208;-76
2021/06/05 08:48:49;;;;;;;39.63;29.40;;;17.30;99.90;;;;;;5052872;28;20200;-78
2021/06/05 08:51:22;;;;;;;38.60;29.70;;;17.30;99.90;;;;;;5052902;28;20219;-75
2021/06/05 08:53:52;;;;;;;45.63;29.27;;;17.20;99.90;;;;;;5050681;28;20195;-78
2021/06/05 08:56:22;;;;;;;36.77;28.17;;;17.40;99.90;;;;;;5043930;28;20287;-77
2021/06/05 08:58:55;;;;;;;37.80;28.00;;;17.20;99.90;;;;;;5051936;28;20282;-76
2021/06/05 09:01:26;;;;;;;38.67;27.57;;;17.30;99.90;;;;;;5053436;28;20225;-76
2021/06/05 09:03:57;;;;;;;38.00;29.07;;;17.10;99.90;;;;;;5052888;28;20185;-73
2021/06/05 09:06:30;;;;;;;35.70;27.80;;;16.80;99.90;;;;;;5052763;28;20330;-76
2021/06/05 09:08:58;;;;;;;42.83;30.27;;;16.80;99.90;;;;;;5052912;28;20204;-76
2021/06/05 09:11:24;;;;;;;39.57;29.93;;;16.80;99.90;;;;;;5053102;28;20311;-75
2021/06/05 09:13:52;;;;;;;44.97;31.70;;;16.80;99.90;;;;;;5053320;28;20242;-75
2021/06/05 09:16:25;;;;;;;45.60;32.03;;;16.90;99.90;;;;;;5052461;28;20239;-76
2021/06/05 09:18:54;;;;;;;47.37;33.23;;;16.60;99.90;;;;;;5052750;28;20176;-75
2021/06/05 09:21:26;;;;;;;46.20;32.63;;;16.70;99.90;;;;;;5052574;28;20226;-75
2021/06/05 09:23:52;;;;;;;48.67;33.60;;;16.70;99.90;;;;;;5052265;28;20646;-75
2021/06/05 09:26:24;;;;;;;49.83;34.87;;;16.70;99.90;;;;;;5052500;28;20258;-76
2021/06/05 09:29:08;;;;;;;49.93;33.73;;;16.80;99.90;;;;;;5052383;28;20190;-75
2021/06/05 09:31:49;;;;;;;44.33;32.73;;;16.70;99.90;;;;;;5051591;28;20188;-74
2021/06/05 09:34:16;;;;;;;43.60;32.00;;;16.70;99.90;;;;;;5051869;28;20224;-75
2021/06/05 09:36:42;;;;;;;41.63;31.40;;;16.90;99.90;;;;;;5048159;28;20646;-75
2021/06/05 09:39:12;;;;;;;39.47;29.90;;;17.10;99.90;;;;;;5050880;28;20188;-76
2021/06/05 09:41:43;;;;;;;40.73;30.63;;;17.40;99.90;;;;;;5051839;28;20207;-76
2021/06/05 09:44:22;;;;;;;39.03;29.10;;;17.20;99.90;;;;;;5052686;28;20215;-76
2021/06/05 09:46:58;;;;;;;34.87;27.83;;;17.00;99.90;;;;;;5052916;28;20310;-76
2021/06/05 09:49:32;;;;;;;34.07;27.77;;;17.00;99.90;;;;;;5052576;28;20337;-75
2021/06/05 09:52:11;;;;;;;34.93;27.50;;;17.00;99.90;;;;;;5046685;28;20545;-77
2021/06/05 09:54:40;;;;;;;35.50;27.30;;;17.00;99.90;;;;;;5049421;28;20196;-76
2021/06/05 09:57:37;;;;;;;29.20;24.30;;;17.20;99.90;;;;;;5050312;28;20281;-76
2021/06/05 10:00:10;;;;;;;32.90;24.13;;;17.20;99.90;;;;;;5047718;28;20668;-75
2021/06/05 10:02:38;;;;;;;31.03;23.90;;;17.00;99.90;;;;;;5051374;28;20204;-75
2021/06/05 10:05:10;;;;;;;31.97;24.93;;;17.20;99.90;;;;;;5049292;28;20192;-75
2021/06/05 10:07:38;;;;;;;31.73;23.97;;;16.90;99.90;;;;;;5051434;28;20224;-74
2021/06/05 10:10:12;;;;;;;32.00;24.80;;;17.10;99.90;;;;;;5051598;28;20192;-77
2021/06/05 10:12:41;;;;;;;33.67;25.93;;;17.10;99.90;;;;;;5050647;28;20290;-76
2021/06/05 10:15:12;;;;;;;34.90;26.63;;;17.10;99.90;;;;;;5051374;28;20279;-76
2021/06/05 10:17:50;;;;;;;38.87;27.30;;;17.20;99.90;;;;;;5051189;28;20200;-76
2021/06/05 10:20:25;;;;;;;33.00;25.53;;;17.00;99.90;;;;;;5038314;28;20196;-75
2021/06/05 10:22:56;;;;;;;35.10;26.03;;;17.10;99.90;;;;;;5034556;28;20199;-76
2021/06/05 10:25:30;;;;;;;37.30;27.70;;;17.20;99.90;;;;;;5036490;28;20189;-78
2021/06/05 10:28:03;;;;;;;33.43;25.80;;;17.10;99.90;;;;;;5051174;28;20202;-76
2021/06/05 10:30:39;;;;;;;33.60;26.40;;;17.10;99.90;;;;;;5050464;28;20291;-76
2021/06/05 10:33:10;;;;;;;37.33;26.27;;;17.30;99.90;;;;;;5049473;28;20194;-77
2021/06/05 10:35:39;;;;;;;32.57;25.70;;;17.20;99.90;;;;;;5043032;28;20266;-76
2021/06/05 10:38:10;;;;;;;36.00;26.70;;;17.10;99.90;;;;;;5046194;28;20374;-76
2021/06/05 10:40:37;;;;;;;37.73;28.30;;;16.90;99.90;;;;;;5051184;28;20215;-76
2021/06/05 10:43:09;;;;;;;39.13;28.10;;;16.70;99.90;;;;;;5051418;28;20188;-75
2021/06/05 10:45:37;;;;;;;34.97;26.23;;;16.70;99.90;;;;;;5051009;28;20557;-76
2021/06/05 10:48:07;;;;;;;39.90;26.00;;;16.90;99.90;;;;;;5051284;28;20620;-76
2021/06/05 10:50:36;;;;;;;34.53;24.13;;;16.80;99.90;;;;;;5051009;28;20540;-76
2021/06/05 10:53:11;;;;;;;30.97;23.20;;;16.80;99.90;;;;;;5053171;28;20192;-75
2021/06/05 10:55:44;;;;;;;29.90;22.57;;;16.90;99.90;;;;;;5056219;28;20245;-77
2021/06/05 10:58:42;;;;;;;29.27;23.17;;;16.70;99.90;;;;;;5054875;28;20699;-77
2021/06/05 11:01:13;;;;;;;26.63;22.27;;;16.60;99.90;;;;;;5051599;28;20219;-75
2021/06/05 11:03:52;;;;;;;28.13;21.27;;;16.60;99.90;;;;;;5055929;28;20231;-75
2021/06/05 11:06:20;;;;;;;31.17;22.03;;;16.80;99.90;;;;;;5054353;28;20208;-75
2021/06/05 11:08:51;;;;;;;28.43;21.57;;;16.70;99.90;;;;;;5049422;28;20195;-75
2021/06/05 11:11:42;;;;;;;27.47;20.90;;;16.70;99.90;;;;;;5054690;28;20231;-75
2021/06/05 11:14:41;;;;;;;27.80;19.90;;;16.70;99.90;;;;;;5054584;28;20203;-75
2021/06/05 11:17:33;;;;;;;22.60;18.13;;;16.60;99.90;;;;;;5054531;28;20654;-75
2021/06/05 11:20:30;;;;;;;26.27;17.87;;;16.60;99.90;;;;;;5052664;28;20283;-75
2021/06/05 11:23:18;;;;;;;26.70;17.80;;;16.70;99.90;;;;;;5050675;28;20267;-75
2021/06/05 11:25:48;;;;;;;20.03;16.03;;;17.00;99.90;;;;;;5054167;28;20698;-75
2021/06/05 11:28:48;;;;;;;24.50;17.10;;;16.80;99.90;;;;;;5053607;28;20192;-74
2021/06/05 11:31:40;;;;;;;21.83;16.90;;;16.80;99.90;;;;;;5049690;28;20570;-74
2021/06/05 11:34:08;;;;;;;19.07;15.83;;;16.90;99.90;;;;;;5054395;28;20725;-75
2021/06/05 11:36:48;;;;;;;24.50;16.23;;;17.00;99.90;;;;;;5053698;28;20247;-74
2021/06/05 11:39:48;;;;;;;20.23;15.63;;;17.20;99.90;;;;;;5053503;28;20266;-75
2021/06/05 11:42:49;;;;;;;19.63;15.67;;;17.30;99.90;;;;;;5052596;28;20192;-74
2021/06/05 11:45:57;;;;;;;17.67;14.97;;;16.90;99.90;;;;;;5051877;28;20188;-76
2021/06/05 11:49:00;;;;;;;20.37;14.97;;;17.10;99.90;;;;;;5008996;28;20288;-75
2021/06/05 11:51:42;;;;;;;18.27;14.73;;;17.10;99.90;;;;;;4992630;28;20202;-76
2021/06/05 11:54:22;;;;;;;18.93;15.27;;;16.90;99.90;;;;;;5029677;28;20216;-74
2021/06/05 11:56:55;;;;;;;16.57;13.67;;;17.10;99.90;;;;;;5035559;28;20287;-76
2021/06/05 11:59:29;;;;;;;21.13;15.27;;;17.10;99.90;;;;;;5037110;28;20650;-75
2021/06/05 12:02:10;;;;;;;21.27;15.93;;;17.40;99.90;;;;;;5051988;28;20283;-74
2021/06/05 12:04:44;;;;;;;20.90;17.10;;;17.70;99.90;;;;;;5042197;28;20200;-75
2021/06/05 12:07:23;;;;;;;23.43;18.43;;;18.00;99.90;;;;;;5034965;28;20754;-74
2021/06/05 12:09:55;;;;;;;27.07;21.70;;;18.10;99.90;;;;;;5051166;28;20219;-74
2021/06/05 12:12:23;;;;;;;23.60;18.57;;;18.30;99.90;;;;;;5053767;28;20498;-74
2021/06/05 12:14:56;;;;;;;22.10;18.03;;;18.30;99.90;;;;;;5053686;28;20223;-74
2021/06/05 12:17:29;;;;;;;19.57;15.93;;;18.50;99.90;;;;;;5043280;28;20580;-73
2021/06/05 12:20:06;;;;;;;22.00;18.37;;;18.70;99.90;;;;;;5040582;28;20200;-75
2021/06/05 12:22:33;;;;;;;22.33;17.57;;;18.80;99.90;;;;;;5036380;28;20310;-74
2021/06/05 12:25:00;;;;;;;21.20;16.40;;;19.00;99.90;;;;;;5037832;28;20200;-74
2021/06/05 12:27:30;;;;;;;22.47;15.63;;;19.00;99.90;;;;;;5037976;28;20228;-75
2021/06/05 12:30:16;;;;;;;19.60;15.47;;;18.80;99.90;;;;;;5049884;28;20206;-75
2021/06/05 12:32:55;;;;;;;22.80;16.77;;;18.80;99.90;;;;;;5050029;28;20535;-76
2021/06/05 12:35:27;;;;;;;21.80;15.57;;;18.70;99.90;;;;;;5050347;28;21410;-76
2021/06/05 12:37:56;;;;;;;21.23;14.80;;;18.50;99.90;;;;;;5053787;28;20638;-75